Terminal Aerodrome Forecast
Issued by NWS Albany, NY

Home | Current Version | Previous Version | Text Only | Print | Product List | Glossary On
Versions: 1 2 3 4 5 6 7 8 9 10 11 12 13 14 15 16 17 18 19 20
000
FTUS41 KALY 311731
TAFPOU
TAF
KPOU 311731Z 3118/0118 23008KT P6SM VCSH SCT050 BKN250
     FM312000 28010KT P6SM SCT050 SCT250
     FM010000 VRB03KT P6SM FEW250
     FM010800 00000KT 3SM BR SKC
     FM011300 VRB03KT P6SM SKC=

USA.gov is the U.S. government's official web portal to all federal, state and local government web resources and services.